Time;durP1;ratioP1;P1;durP2;ratioP2;P2;SDS_P1;SDS_P2;PMS_P1;PMS_P2;Temp;Humidity;BMP_temperature;BMP_pressure;BME280_temperature;BME280_humidity;BME280_pressure;Samples;Min_cycle;Max_cycle;Signal;HPM_P1;HPM_P2
2023/12/18 00:00:21;;;;;;;13.95;9.20;;;2.80;88.60;;;;;;4963989;28;20281;-62
2023/12/18 00:02:46;;;;;;;15.10;9.38;;;2.80;88.60;;;;;;4956925;28;20093;-62
2023/12/18 00:05:12;;;;;;;16.33;10.38;;;2.80;88.60;;;;;;4956871;28;20044;-62
2023/12/18 00:07:38;;;;;;;14.90;9.65;;;2.80;88.50;;;;;;4968281;28;20043;-61
2023/12/18 00:10:04;;;;;;;13.15;9.13;;;2.80;88.50;;;;;;4963441;28;20042;-61
2023/12/18 00:12:29;;;;;;;13.18;8.73;;;2.80;88.40;;;;;;4964424;28;20565;-61
2023/12/18 00:14:55;;;;;;;14.88;9.63;;;2.80;88.30;;;;;;4959179;28;20035;-62
2023/12/18 00:17:20;;;;;;;14.25;9.13;;;2.90;88.20;;;;;;4954776;28;20245;-62
2023/12/18 00:19:46;;;;;;;14.45;9.32;;;2.80;88.00;;;;;;4960266;28;20065;-63
2023/12/18 00:22:11;;;;;;;14.07;9.10;;;2.80;87.90;;;;;;4942615;28;20121;-63
2023/12/18 00:24:37;;;;;;;14.65;9.43;;;2.90;87.90;;;;;;4962014;28;20042;-61
2023/12/18 00:27:03;;;;;;;14.80;9.55;;;2.90;87.90;;;;;;4964410;28;20134;-63
2023/12/18 00:29:28;;;;;;;14.25;9.23;;;2.90;87.80;;;;;;4962135;28;20419;-62
2023/12/18 00:31:54;;;;;;;14.35;8.98;;;2.90;87.60;;;;;;4958568;28;20054;-62
2023/12/18 00:34:19;;;;;;;14.50;8.93;;;2.90;87.50;;;;;;4962350;28;20035;-62
2023/12/18 00:36:45;;;;;;;14.20;9.18;;;2.90;87.50;;;;;;4956767;28;20106;-62
2023/12/18 00:39:11;;;;;;;13.63;9.02;;;2.90;87.50;;;;;;4962367;28;20036;-62
2023/12/18 00:41:37;;;;;;;13.05;8.65;;;2.90;87.40;;;;;;4959509;28;20554;-63
2023/12/18 00:44:03;;;;;;;15.45;10.05;;;2.90;87.40;;;;;;4958186;28;20121;-62
2023/12/18 00:46:29;;;;;;;14.85;9.27;;;2.90;87.30;;;;;;4955528;28;20454;-63
2023/12/18 00:48:54;;;;;;;15.10;9.43;;;2.90;87.30;;;;;;4961900;28;20031;-61
2023/12/18 00:51:20;;;;;;;13.68;8.88;;;2.90;87.30;;;;;;4964081;28;20130;-62
2023/12/18 00:53:46;;;;;;;15.40;9.50;;;2.90;87.30;;;;;;4960949;28;20031;-62
2023/12/18 00:56:11;;;;;;;15.77;9.80;;;2.90;87.30;;;;;;4960122;28;20466;-62
2023/12/18 00:58:38;;;;;;;14.77;9.40;;;2.90;87.20;;;;;;4966402;28;20046;-63
2023/12/18 01:01:03;;;;;;;15.52;9.82;;;2.90;87.30;;;;;;4960036;28;20039;-63
2023/12/18 01:03:30;;;;;;;13.80;9.02;;;2.90;87.30;;;;;;4966888;28;20039;-62
2023/12/18 01:05:56;;;;;;;14.77;9.00;;;2.90;87.30;;;;;;4966079;28;20058;-63
2023/12/18 01:08:21;;;;;;;14.80;9.48;;;2.90;87.30;;;;;;4965490;28;20082;-62
2023/12/18 01:10:48;;;;;;;15.65;9.98;;;2.90;87.30;;;;;;4964264;28;20037;-63
2023/12/18 01:13:13;;;;;;;15.82;9.82;;;2.90;87.30;;;;;;4957193;28;20089;-63
2023/12/18 01:15:39;;;;;;;15.48;10.10;;;2.90;87.30;;;;;;4965364;28;20453;-63
2023/12/18 01:18:05;;;;;;;16.30;9.95;;;2.90;87.40;;;;;;4962486;28;20039;-63
2023/12/18 01:20:30;;;;;;;15.18;10.15;;;2.80;87.50;;;;;;4968047;28;20085;-62
2023/12/18 01:22:56;;;;;;;14.02;9.77;;;2.80;87.50;;;;;;4964346;28;20027;-63
2023/12/18 01:25:21;;;;;;;15.85;9.85;;;2.80;87.70;;;;;;4965677;28;20062;-63
2023/12/18 01:27:47;;;;;;;16.42;10.15;;;2.80;87.80;;;;;;4962906;28;20458;-63
2023/12/18 01:30:13;;;;;;;17.73;10.75;;;2.80;87.90;;;;;;4966018;28;20086;-62
2023/12/18 01:32:39;;;;;;;19.77;11.13;;;2.80;88.00;;;;;;4966596;28;20459;-61
2023/12/18 01:35:05;;;;;;;16.00;10.05;;;2.80;88.00;;;;;;4964958;28;20096;-62
2023/12/18 01:37:30;;;;;;;18.27;10.10;;;2.80;88.00;;;;;;4966478;28;20574;-60
2023/12/18 01:39:57;;;;;;;17.42;10.35;;;2.80;88.00;;;;;;4963151;28;20027;-62
2023/12/18 01:42:22;;;;;;;16.02;10.23;;;2.80;88.10;;;;;;4967012;28;20038;-59
2023/12/18 01:44:48;;;;;;;19.10;9.90;;;2.70;88.10;;;;;;4958445;28;20031;-63
2023/12/18 01:47:15;;;;;;;16.73;10.18;;;2.70;88.00;;;;;;4965745;28;20051;-62
2023/12/18 01:49:41;;;;;;;17.17;10.30;;;2.70;88.20;;;;;;4948965;28;20418;-63
2023/12/18 01:52:07;;;;;;;17.23;10.18;;;2.70;88.10;;;;;;4960180;28;20479;-62
2023/12/18 01:54:33;;;;;;;16.17;10.05;;;2.70;88.20;;;;;;4958727;28;20032;-63
2023/12/18 01:57:01;;;;;;;16.98;10.40;;;2.70;88.40;;;;;;4961496;28;20042;-62
2023/12/18 01:59:27;;;;;;;15.38;9.88;;;2.70;88.50;;;;;;4969280;28;20084;-60
2023/12/18 02:01:53;;;;;;;16.27;10.57;;;2.70;88.40;;;;;;4969064;28;20559;-62
2023/12/18 02:04:19;;;;;;;15.32;10.00;;;2.70;88.50;;;;;;4960712;28;20170;-63
2023/12/18 02:06:46;;;;;;;15.25;10.10;;;2.70;88.50;;;;;;4970991;28;20031;-62
2023/12/18 02:09:12;;;;;;;15.93;10.50;;;2.70;88.40;;;;;;4959885;28;20310;-63
2023/12/18 02:11:38;;;;;;;16.17;10.25;;;2.70;88.40;;;;;;4960475;28;20038;-62
2023/12/18 02:14:05;;;;;;;15.55;9.93;;;2.70;88.40;;;;;;4966478;28;20038;-62
2023/12/18 02:16:31;;;;;;;15.40;9.93;;;2.70;88.50;;;;;;4960600;28;20335;-62
2023/12/18 02:18:56;;;;;;;15.77;9.98;;;2.70;88.60;;;;;;4961293;28;20161;-62
2023/12/18 02:21:22;;;;;;;15.10;10.20;;;2.60;88.60;;;;;;4960102;28;20039;-62
2023/12/18 02:23:49;;;;;;;15.18;9.88;;;2.60;88.70;;;;;;4963251;28;20170;-62
2023/12/18 02:26:16;;;;;;;15.10;9.88;;;2.60;88.70;;;;;;4962214;28;20510;-61
2023/12/18 02:28:45;;;;;;;15.05;9.85;;;2.60;88.70;;;;;;4969238;28;20035;-60
2023/12/18 02:31:14;;;;;;;15.20;9.95;;;2.60;88.90;;;;;;4963769;28;20114;-62
2023/12/18 02:33:41;;;;;;;16.08;10.27;;;2.60;88.90;;;;;;4959931;28;20217;-61
2023/12/18 02:36:06;;;;;;;15.27;9.73;;;2.60;88.90;;;;;;4965550;28;20042;-62
2023/12/18 02:38:32;;;;;;;14.88;9.88;;;2.60;88.80;;;;;;4954458;28;20035;-63
2023/12/18 02:40:58;;;;;;;14.48;9.57;;;2.60;88.90;;;;;;4960161;28;20033;-62
2023/12/18 02:43:23;;;;;;;14.02;9.55;;;2.60;88.90;;;;;;4967167;28;20421;-62
2023/12/18 02:45:49;;;;;;;14.82;9.45;;;2.60;88.90;;;;;;4964858;28;20189;-61
2023/12/18 02:48:14;;;;;;;16.50;10.05;;;2.60;88.90;;;;;;4971570;28;20027;-62
2023/12/18 02:50:40;;;;;;;15.27;9.82;;;2.60;88.90;;;;;;4962459;28;20039;-62
2023/12/18 02:53:05;;;;;;;15.52;10.48;;;2.60;88.90;;;;;;4961255;28;20027;-62
2023/12/18 02:55:31;;;;;;;15.88;10.50;;;2.60;89.00;;;;;;4962431;28;20380;-62
2023/12/18 02:57:57;;;;;;;17.00;10.43;;;2.60;88.90;;;;;;4964031;28;20317;-62
2023/12/18 03:00:22;;;;;;;15.10;9.70;;;2.60;89.00;;;;;;4961120;28;20059;-61
2023/12/18 03:02:48;;;;;;;14.52;9.38;;;2.60;89.10;;;;;;4964023;28;20042;-63
2023/12/18 03:05:14;;;;;;;14.63;9.60;;;2.50;89.10;;;;;;4956754;28;20059;-63
2023/12/18 03:07:40;;;;;;;14.95;9.65;;;2.50;89.10;;;;;;4960767;28;20050;-62
2023/12/18 03:10:06;;;;;;;16.10;9.88;;;2.50;89.10;;;;;;4966465;28;20642;-62
2023/12/18 03:12:31;;;;;;;14.98;9.95;;;2.50;89.30;;;;;;4966366;28;20450;-63
2023/12/18 03:14:57;;;;;;;15.00;9.85;;;2.50;89.30;;;;;;4967946;28;20059;-63
2023/12/18 03:17:22;;;;;;;15.18;9.30;;;2.50;89.30;;;;;;4959431;28;20388;-63
2023/12/18 03:19:48;;;;;;;17.30;10.02;;;2.50;89.30;;;;;;4959075;28;20514;-63
2023/12/18 03:22:13;;;;;;;14.32;9.73;;;2.50;89.30;;;;;;4952465;28;20031;-62
2023/12/18 03:24:40;;;;;;;16.08;10.15;;;2.50;89.30;;;;;;4964926;28;20062;-62
2023/12/18 03:27:06;;;;;;;15.98;9.77;;;2.50;89.30;;;;;;4962112;28;20522;-61
2023/12/18 03:29:31;;;;;;;14.25;9.30;;;2.50;90.00;;;;;;4960090;28;20086;-62
2023/12/18 03:31:57;;;;;;;14.43;9.35;;;2.50;89.30;;;;;;4962750;28;20035;-63
2023/12/18 03:34:23;;;;;;;14.68;9.25;;;2.50;89.30;;;;;;4964568;28;20031;-62
2023/12/18 03:36:48;;;;;;;14.43;9.18;;;2.50;89.30;;;;;;4952562;28;20051;-63
2023/12/18 03:39:14;;;;;;;14.98;9.80;;;2.50;89.30;;;;;;4957175;28;20032;-62
2023/12/18 03:41:40;;;;;;;14.35;9.32;;;2.50;89.30;;;;;;4961859;28;20042;-62
2023/12/18 03:44:05;;;;;;;14.00;9.13;;;2.50;89.40;;;;;;4965678;28;20035;-63
2023/12/18 03:46:31;;;;;;;16.60;10.23;;;2.50;89.40;;;;;;4949390;28;20469;-62
2023/12/18 03:48:56;;;;;;;14.80;9.32;;;2.40;89.40;;;;;;4955432;28;20129;-63
2023/12/18 03:51:22;;;;;;;14.77;9.48;;;2.50;89.40;;;;;;4946324;28;20041;-62
2023/12/18 03:53:47;;;;;;;16.40;10.23;;;2.50;89.40;;;;;;4967171;28;20038;-63
2023/12/18 03:56:13;;;;;;;15.13;9.65;;;2.40;89.40;;;;;;4962402;28;20039;-62
2023/12/18 03:58:38;;;;;;;15.25;9.27;;;2.40;89.40;;;;;;4965379;28;20065;-60
2023/12/18 04:01:04;;;;;;;14.82;9.15;;;2.40;89.50;;;;;;4966422;28;20038;-63
2023/12/18 04:03:30;;;;;;;13.65;9.20;;;2.40;89.60;;;;;;4958170;28;20146;-61
2023/12/18 04:05:55;;;;;;;14.13;9.30;;;2.40;89.60;;;;;;4949598;28;20059;-62
2023/12/18 04:08:21;;;;;;;16.42;9.50;;;2.40;89.60;;;;;;4955871;28;20118;-62
2023/12/18 04:10:46;;;;;;;14.93;9.57;;;2.40;89.60;;;;;;4966802;28;20085;-62
2023/12/18 04:13:12;;;;;;;14.98;9.40;;;2.40;89.60;;;;;;4961833;28;20526;-62
2023/12/18 04:15:38;;;;;;;15.05;9.38;;;2.40;89.60;;;;;;4962966;28;20023;-63
2023/12/18 04:18:05;;;;;;;17.90;10.15;;;2.40;89.60;;;;;;4957434;28;20300;-63
2023/12/18 04:20:30;;;;;;;16.00;9.50;;;2.40;89.60;;;;;;4957994;28;20035;-62
2023/12/18 04:22:56;;;;;;;16.35;9.82;;;2.40;89.60;;;;;;4955551;28;20458;-63
2023/12/18 04:25:22;;;;;;;15.52;8.80;;;2.40;89.80;;;;;;4969298;28;20031;-63
2023/12/18 04:27:48;;;;;;;15.30;10.20;;;2.40;89.80;;;;;;4961066;28;20058;-63
2023/12/18 04:30:13;;;;;;;14.65;9.63;;;2.40;89.80;;;;;;4961228;28;20035;-62
2023/12/18 04:32:39;;;;;;;16.25;10.13;;;2.40;90.30;;;;;;4956742;28;20051;-62
2023/12/18 04:35:05;;;;;;;15.10;9.55;;;2.50;89.90;;;;;;4961733;28;20035;-63
2023/12/18 04:37:30;;;;;;;16.67;9.93;;;2.40;89.80;;;;;;4955099;28;20031;-62
2023/12/18 04:39:56;;;;;;;16.13;10.05;;;2.40;89.80;;;;;;4951559;28;20283;-62
2023/12/18 04:42:22;;;;;;;14.95;9.68;;;2.50;90.00;;;;;;4949165;28;20301;-62
2023/12/18 04:44:48;;;;;;;15.82;9.57;;;2.50;90.00;;;;;;4951735;28;20043;-61
2023/12/18 04:47:14;;;;;;;16.92;10.02;;;2.50;89.80;;;;;;4956038;28;20039;-62
2023/12/18 04:49:39;;;;;;;15.52;9.80;;;2.50;90.30;;;;;;4949376;28;20483;-63
2023/12/18 04:52:05;;;;;;;15.40;9.23;;;2.50;89.70;;;;;;4961752;28;20046;-63
2023/12/18 04:54:31;;;;;;;16.35;9.95;;;2.50;89.70;;;;;;4952334;28;20035;-62
2023/12/18 04:56:56;;;;;;;15.30;9.23;;;2.50;89.70;;;;;;4951920;28;20031;-63
2023/12/18 04:59:22;;;;;;;14.68;9.32;;;2.50;89.80;;;;;;4963176;28;20047;-63
2023/12/18 05:01:47;;;;;;;15.98;9.73;;;2.50;89.80;;;;;;4948787;28;20043;-61
2023/12/18 05:04:13;;;;;;;15.77;9.90;;;2.50;89.80;;;;;;4953788;28;20058;-63
2023/12/18 05:06:39;;;;;;;14.30;9.38;;;2.50;89.80;;;;;;4954477;28;20032;-61
2023/12/18 05:09:05;;;;;;;16.10;10.27;;;2.50;89.70;;;;;;4957505;28;20038;-62
2023/12/18 05:11:31;;;;;;;15.70;10.10;;;2.50;89.70;;;;;;4960586;28;20054;-63
2023/12/18 05:13:56;;;;;;;15.02;9.13;;;2.50;89.70;;;;;;4951090;28;20126;-63
2023/12/18 05:16:22;;;;;;;13.98;9.40;;;2.50;89.60;;;;;;4951734;28;20429;-62
2023/12/18 05:18:48;;;;;;;15.75;9.57;;;2.60;89.80;;;;;;4954225;28;20035;-63
2023/12/18 05:21:14;;;;;;;15.40;9.43;;;2.60;89.70;;;;;;4948651;28;20031;-63
2023/12/18 05:23:40;;;;;;;14.80;9.25;;;2.60;89.60;;;;;;4951824;28;20042;-63
2023/12/18 05:26:06;;;;;;;17.73;9.77;;;2.60;89.60;;;;;;4963447;28;20031;-61
2023/12/18 05:28:31;;;;;;;15.48;9.70;;;2.60;89.50;;;;;;4957522;28;20380;-62
2023/12/18 05:30:57;;;;;;;14.15;8.98;;;2.60;89.40;;;;;;4951312;28;20070;-63
2023/12/18 05:33:23;;;;;;;13.95;9.20;;;2.60;89.40;;;;;;4955122;28;20495;-63
2023/12/18 05:35:49;;;;;;;14.77;9.75;;;2.60;89.20;;;;;;4951608;28;20058;-62
2023/12/18 05:38:14;;;;;;;15.50;8.90;;;2.60;89.20;;;;;;4963838;28;20510;-63
2023/12/18 05:40:40;;;;;;;17.55;9.82;;;2.60;89.30;;;;;;4950641;28;20110;-63
2023/12/18 05:43:06;;;;;;;14.85;9.93;;;2.60;89.20;;;;;;4955608;28;20105;-63
2023/12/18 05:45:32;;;;;;;17.17;9.93;;;2.60;89.10;;;;;;4952302;28;20055;-62
2023/12/18 05:47:58;;;;;;;16.70;9.30;;;2.60;89.10;;;;;;4956679;28;20040;-63
2023/12/18 05:50:24;;;;;;;16.83;9.98;;;2.60;89.10;;;;;;4954207;28;20115;-63
2023/12/18 05:52:49;;;;;;;16.58;10.32;;;2.60;89.20;;;;;;4959630;28;20102;-62
2023/12/18 05:55:15;;;;;;;16.17;9.73;;;2.60;89.10;;;;;;4969622;28;20507;-62
2023/12/18 05:57:41;;;;;;;16.33;10.68;;;2.60;89.10;;;;;;4957971;28;20054;-63
2023/12/18 06:00:07;;;;;;;15.38;9.88;;;2.60;89.10;;;;;;4967114;28;20039;-60
2023/12/18 06:02:33;;;;;;;16.25;9.85;;;2.50;89.10;;;;;;4957432;28;20469;-63
2023/12/18 06:04:59;;;;;;;16.48;10.30;;;2.50;89.10;;;;;;4953463;28;20031;-62
2023/12/18 06:07:25;;;;;;;16.25;9.93;;;2.50;89.30;;;;;;4957762;28;20126;-62
2023/12/18 06:09:50;;;;;;;19.10;10.65;;;2.50;89.40;;;;;;4957050;28;20109;-62
2023/12/18 06:12:16;;;;;;;15.45;9.48;;;2.50;89.40;;;;;;4958207;28;20550;-62
2023/12/18 06:14:42;;;;;;;17.27;9.90;;;2.50;89.60;;;;;;4957286;28;20110;-63
2023/12/18 06:17:08;;;;;;;18.20;10.63;;;2.50;89.60;;;;;;4956980;28;20043;-63
2023/12/18 06:19:34;;;;;;;18.65;9.75;;;2.50;89.60;;;;;;4955095;28;20105;-62
2023/12/18 06:22:01;;;;;;;18.85;9.90;;;2.40;89.40;;;;;;4952848;28;20038;-63
2023/12/18 06:24:26;;;;;;;21.10;9.88;;;2.50;89.50;;;;;;4960073;28;20498;-63
2023/12/18 06:26:53;;;;;;;18.33;9.98;;;2.50;89.50;;;;;;4956666;28;20034;-62
2023/12/18 06:29:19;;;;;;;19.33;10.43;;;2.50;89.60;;;;;;4954513;28;20035;-62
2023/12/18 06:31:45;;;;;;;19.75;10.85;;;2.50;89.40;;;;;;4953796;28;20127;-63
2023/12/18 06:34:11;;;;;;;19.75;10.25;;;2.50;90.10;;;;;;4958121;28;20122;-62
2023/12/18 06:36:37;;;;;;;21.00;10.73;;;2.50;89.40;;;;;;4953537;28;20058;-63
2023/12/18 06:39:03;;;;;;;19.88;10.55;;;2.50;89.50;;;;;;4953533;28;20518;-62
2023/12/18 06:41:29;;;;;;;19.88;10.23;;;2.50;89.50;;;;;;4955244;28;20058;-62
2023/12/18 06:43:54;;;;;;;19.05;9.77;;;2.50;89.60;;;;;;4953700;28;20062;-62
2023/12/18 06:46:20;;;;;;;21.67;11.00;;;2.40;89.40;;;;;;4952274;28;20082;-63
2023/12/18 06:48:46;;;;;;;15.75;9.38;;;2.40;89.60;;;;;;4955193;28;20420;-62
2023/12/18 06:51:12;;;;;;;19.15;9.95;;;2.40;89.60;;;;;;4956572;28;20063;-63
2023/12/18 06:53:37;;;;;;;20.98;10.38;;;2.40;89.60;;;;;;4942634;28;20197;-62
2023/12/18 06:56:03;;;;;;;19.45;10.30;;;2.50;89.60;;;;;;4960094;28;20467;-63
2023/12/18 06:58:29;;;;;;;18.38;10.65;;;2.50;89.60;;;;;;4961116;28;20450;-64
2023/12/18 07:00:55;;;;;;;18.88;10.48;;;2.40;89.50;;;;;;4952827;28;20032;-63
2023/12/18 07:03:20;;;;;;;17.23;9.85;;;2.40;89.50;;;;;;4953442;28;20031;-63
2023/12/18 07:05:46;;;;;;;18.48;10.02;;;2.40;89.50;;;;;;4950829;28;20062;-63
2023/12/18 07:08:12;;;;;;;22.63;10.55;;;2.40;90.10;;;;;;4963316;28;20381;-63
2023/12/18 07:10:39;;;;;;;24.88;10.50;;;2.40;89.40;;;;;;4961273;28;20586;-64
2023/12/18 07:13:05;;;;;;;19.00;10.98;;;2.40;89.40;;;;;;4962052;28;20039;-63
2023/12/18 07:15:30;;;;;;;22.45;10.32;;;2.50;89.40;;;;;;4938615;28;20331;-63
2023/12/18 07:17:58;;;;;;;19.10;9.52;;;2.50;89.40;;;;;;4926257;28;20039;-63
2023/12/18 07:20:24;;;;;;;19.98;10.05;;;2.40;89.40;;;;;;4943085;28;20042;-63
2023/12/18 07:22:50;;;;;;;23.60;9.48;;;2.40;89.40;;;;;;4944241;28;20473;-63
2023/12/18 07:25:15;;;;;;;22.30;9.48;;;2.40;89.40;;;;;;4942777;28;20040;-63
2023/12/18 07:27:41;;;;;;;22.60;9.52;;;2.40;89.40;;;;;;4941579;28;20039;-63
2023/12/18 07:30:07;;;;;;;28.38;9.90;;;2.40;89.40;;;;;;4948578;28;20035;-64
2023/12/18 07:32:33;;;;;;;19.20;9.75;;;2.40;89.60;;;;;;4950572;28;20043;-63
2023/12/18 07:35:02;;;;;;;22.58;10.07;;;2.40;89.80;;;;;;4948010;28;20347;-63
2023/12/18 07:37:28;;;;;;;20.23;10.00;;;2.40;89.90;;;;;;4945766;28;20055;-62
2023/12/18 07:39:55;;;;;;;24.52;10.05;;;2.30;89.80;;;;;;4945653;28;20583;-63
2023/12/18 07:42:21;;;;;;;23.05;10.50;;;2.40;90.00;;;;;;4942800;28;20054;-63
2023/12/18 07:44:46;;;;;;;21.42;9.85;;;2.40;90.00;;;;;;4941078;28;20529;-63
2023/12/18 07:47:12;;;;;;;23.52;10.55;;;2.40;90.00;;;;;;4943812;28;20379;-62
2023/12/18 07:49:37;;;;;;;20.23;9.50;;;2.40;90.10;;;;;;4948554;28;20292;-63
2023/12/18 07:52:03;;;;;;;17.98;9.45;;;2.40;90.10;;;;;;4941438;28;20380;-63
2023/12/18 07:54:29;;;;;;;22.05;9.77;;;2.40;90.10;;;;;;4947911;28;20122;-64
2023/12/18 07:56:55;;;;;;;22.45;9.57;;;2.40;90.10;;;;;;4944832;28;20403;-64
2023/12/18 07:59:20;;;;;;;19.17;9.82;;;2.40;90.10;;;;;;4940730;28;20047;-63
2023/12/18 08:01:46;;;;;;;17.33;9.45;;;2.40;90.10;;;;;;4943885;28;20047;-63
2023/12/18 08:04:12;;;;;;;19.55;9.95;;;2.50;90.20;;;;;;4943850;28;20056;-63
2023/12/18 08:06:38;;;;;;;23.33;9.77;;;2.50;90.20;;;;;;4943730;28;20035;-63
2023/12/18 08:09:04;;;;;;;20.27;10.05;;;2.50;90.20;;;;;;4945361;28;20077;-63
2023/12/18 08:11:30;;;;;;;18.48;10.00;;;2.50;90.20;;;;;;4945324;28;20059;-63
2023/12/18 08:13:55;;;;;;;20.08;9.98;;;2.50;90.20;;;;;;4941253;28;20031;-63
2023/12/18 08:16:23;;;;;;;20.50;9.93;;;2.50;90.20;;;;;;4944617;28;20098;-62
2023/12/18 08:18:49;;;;;;;19.33;9.27;;;2.50;90.20;;;;;;4942003;28;20043;-62
2023/12/18 08:21:15;;;;;;;16.92;9.38;;;2.50;90.30;;;;;;4939740;28;20039;-62
2023/12/18 08:23:41;;;;;;;21.80;9.63;;;2.50;90.30;;;;;;4944389;28;20114;-62
2023/12/18 08:26:09;;;;;;;20.75;9.70;;;2.60;90.20;;;;;;4940974;28;20087;-61
2023/12/18 08:28:35;;;;;;;19.17;9.90;;;2.60;90.20;;;;;;4938811;28;20055;-63
2023/12/18 08:31:00;;;;;;;22.88;10.48;;;2.60;90.20;;;;;;4946155;28;20054;-63
2023/12/18 08:33:26;;;;;;;20.83;9.85;;;2.60;90.20;;;;;;4944861;28;21020;-63
2023/12/18 08:35:51;;;;;;;17.75;9.43;;;2.60;90.20;;;;;;4945206;28;20087;-63
2023/12/18 08:38:17;;;;;;;18.25;9.38;;;2.60;90.20;;;;;;4951243;28;20031;-62
2023/12/18 08:40:43;;;;;;;18.00;9.77;;;2.60;90.30;;;;;;4944039;28;20032;-61
2023/12/18 08:43:09;;;;;;;19.00;9.95;;;2.60;90.30;;;;;;4937972;28;20039;-63
2023/12/18 08:45:35;;;;;;;19.08;9.32;;;2.60;90.40;;;;;;4939820;28;20047;-63
2023/12/18 08:48:01;;;;;;;19.83;9.88;;;2.70;90.50;;;;;;4944195;28;20511;-63
2023/12/18 08:50:27;;;;;;;15.80;9.63;;;2.70;90.50;;;;;;4943624;28;20041;-64
2023/12/18 08:52:53;;;;;;;16.25;10.10;;;2.70;90.40;;;;;;4940098;28;20443;-63
2023/12/18 08:55:19;;;;;;;18.23;10.30;;;2.80;90.40;;;;;;4946186;28;20039;-64
2023/12/18 08:57:45;;;;;;;18.33;10.40;;;2.80;90.40;;;;;;4940860;28;20514;-63
2023/12/18 09:00:12;;;;;;;17.65;9.77;;;2.80;90.30;;;;;;4945069;28;20118;-62
2023/12/18 09:02:38;;;;;;;14.38;9.07;;;2.90;90.40;;;;;;4937538;28;20031;-63
2023/12/18 09:05:04;;;;;;;17.48;9.32;;;2.90;90.30;;;;;;4943835;28;20074;-62
2023/12/18 09:07:30;;;;;;;14.38;9.00;;;2.90;90.30;;;;;;4947046;28;20094;-64
2023/12/18 09:09:55;;;;;;;16.63;9.13;;;2.90;90.30;;;;;;4943772;28;20554;-63
2023/12/18 09:12:21;;;;;;;18.25;9.38;;;3.00;90.30;;;;;;4942307;28;20059;-63
2023/12/18 09:14:46;;;;;;;16.42;9.13;;;3.00;90.30;;;;;;4939574;28;22434;-63
2023/12/18 09:17:12;;;;;;;23.50;10.90;;;3.00;90.40;;;;;;4939767;28;20063;-62
2023/12/18 09:19:38;;;;;;;14.63;9.02;;;3.00;90.30;;;;;;4945383;28;20067;-62
2023/12/18 09:22:03;;;;;;;17.80;9.77;;;3.10;90.30;;;;;;4947681;28;20038;-62
2023/12/18 09:24:29;;;;;;;22.02;10.85;;;3.10;90.30;;;;;;4947593;28;20038;-62
2023/12/18 09:26:55;;;;;;;21.48;9.20;;;3.20;90.40;;;;;;4939557;28;20118;-63
2023/12/18 09:29:22;;;;;;;16.48;9.45;;;3.20;90.30;;;;;;4950081;28;20537;-62
2023/12/18 09:31:48;;;;;;;19.17;10.13;;;3.20;90.20;;;;;;4946273;28;20054;-63
2023/12/18 09:34:14;;;;;;;22.73;10.70;;;3.30;90.20;;;;;;4947533;28;20035;-62
2023/12/18 09:36:39;;;;;;;25.75;9.88;;;3.30;90.20;;;;;;4943044;28;20058;-63
2023/12/18 09:39:05;;;;;;;18.98;9.75;;;3.30;90.20;;;;;;4944508;28;20035;-63
2023/12/18 09:41:31;;;;;;;21.63;9.45;;;3.40;90.20;;;;;;4944965;28;20154;-63
2023/12/18 09:43:57;;;;;;;17.83;9.30;;;3.40;90.20;;;;;;4946320;28;20036;-62
2023/12/18 09:46:24;;;;;;;19.52;9.43;;;3.40;90.10;;;;;;4942360;28;20032;-62
2023/12/18 09:48:50;;;;;;;15.30;8.43;;;3.40;90.10;;;;;;4946533;28;20408;-63
2023/12/18 09:51:19;;;;;;;15.90;8.65;;;3.40;90.10;;;;;;4942124;28;20028;-63
2023/12/18 09:53:46;;;;;;;15.88;8.85;;;3.50;90.10;;;;;;4941975;28;20319;-63
2023/12/18 09:56:12;;;;;;;16.30;8.70;;;3.50;90.10;;;;;;4943639;28;20127;-62
2023/12/18 09:58:40;;;;;;;15.50;9.13;;;3.50;90.10;;;;;;4950369;28;20180;-62
2023/12/18 10:01:06;;;;;;;14.48;8.80;;;3.50;90.10;;;;;;4947888;28;20126;-62
2023/12/18 10:03:32;;;;;;;14.55;9.20;;;3.60;90.20;;;;;;4945851;28;20172;-62
2023/12/18 10:05:57;;;;;;;17.85;9.60;;;3.60;90.20;;;;;;4945149;28;20078;-63
2023/12/18 10:08:23;;;;;;;16.27;8.98;;;3.60;90.20;;;;;;4966659;28;20031;-63
2023/12/18 10:10:49;;;;;;;15.23;9.13;;;3.70;90.20;;;;;;4949957;28;20115;-63
2023/12/18 10:13:14;;;;;;;19.02;8.98;;;3.70;90.10;;;;;;4951198;28;20062;-63
2023/12/18 10:15:42;;;;;;;14.32;8.10;;;3.70;90.10;;;;;;4949351;28;20399;-63
2023/12/18 10:18:09;;;;;;;12.57;8.50;;;3.70;90.00;;;;;;4948840;28;20042;-61
2023/12/18 10:20:35;;;;;;;13.48;8.23;;;3.80;90.00;;;;;;4951496;28;20032;-63
2023/12/18 10:23:01;;;;;;;13.95;8.52;;;3.80;90.10;;;;;;4945965;28;20044;-62
2023/12/18 10:25:27;;;;;;;14.52;9.10;;;3.80;90.20;;;;;;4952937;28;20027;-63
2023/12/18 10:27:56;;;;;;;14.45;8.90;;;3.90;90.20;;;;;;4948294;28;20102;-62
2023/12/18 10:30:25;;;;;;;15.57;9.18;;;3.90;90.10;;;;;;4946868;28;20415;-62
2023/12/18 10:32:52;;;;;;;14.35;9.07;;;3.90;90.10;;;;;;4947959;28;20049;-63
2023/12/18 10:35:18;;;;;;;13.20;8.77;;;4.00;90.00;;;;;;4950018;28;20047;-62
2023/12/18 10:37:51;;;;;;;13.77;8.88;;;4.00;90.00;;;;;;4949290;28;20570;-63
2023/12/18 10:40:23;;;;;;;14.15;7.85;;;4.00;89.90;;;;;;4946370;28;20153;-63
2023/12/18 10:43:06;;;;;;;14.15;8.90;;;4.00;89.90;;;;;;4947531;28;20035;-64
2023/12/18 10:45:34;;;;;;;14.57;8.50;;;4.10;90.10;;;;;;4947499;28;20126;-63
2023/12/18 10:48:01;;;;;;;14.70;8.57;;;4.10;90.00;;;;;;4944160;28;20043;-63
2023/12/18 10:50:32;;;;;;;14.35;8.80;;;4.10;90.00;;;;;;4943705;28;20036;-63
2023/12/18 10:53:02;;;;;;;13.55;8.52;;;4.20;90.20;;;;;;4947767;28;20058;-62
2023/12/18 10:55:28;;;;;;;12.75;8.00;;;4.20;90.20;;;;;;4947497;28;20412;-63
2023/12/18 10:57:58;;;;;;;12.25;8.20;;;4.30;90.20;;;;;;4947761;28;20040;-63
2023/12/18 11:00:24;;;;;;;15.13;8.68;;;4.40;90.20;;;;;;4947755;28;20062;-63
2023/12/18 11:02:51;;;;;;;13.40;8.38;;;4.50;90.20;;;;;;4947551;28;20039;-62
2023/12/18 11:05:17;;;;;;;14.80;9.43;;;4.50;90.10;;;;;;4944232;28;20028;-63
2023/12/18 11:07:43;;;;;;;14.18;8.80;;;4.60;90.10;;;;;;4944723;28;20109;-63
2023/12/18 11:10:09;;;;;;;12.80;8.65;;;4.70;90.10;;;;;;4946351;28;20055;-63
2023/12/18 11:12:38;;;;;;;13.52;8.93;;;4.80;90.00;;;;;;4944277;28;20039;-64
2023/12/18 11:15:22;;;;;;;14.93;9.27;;;4.80;89.80;;;;;;4947761;28;20418;-63
2023/12/18 11:18:15;;;;;;;15.37;9.07;;;4.90;89.80;;;;;;4941471;28;20031;-63
2023/12/18 11:20:42;;;;;;;16.88;9.50;;;4.90;89.70;;;;;;4942636;28;20305;-62
2023/12/18 11:23:10;;;;;;;13.30;9.10;;;5.00;89.70;;;;;;4946187;28;20070;-62
2023/12/18 11:25:41;;;;;;;13.57;8.98;;;5.00;89.50;;;;;;4946682;28;20052;-63
2023/12/18 11:28:07;;;;;;;14.80;9.05;;;5.10;89.40;;;;;;4949908;28;20062;-62
2023/12/18 11:30:40;;;;;;;13.05;8.32;;;5.10;89.20;;;;;;4943649;28;20039;-63
2023/12/18 11:33:10;;;;;;;14.55;8.60;;;5.10;89.10;;;;;;4944660;28;20043;-62
2023/12/18 11:35:37;;;;;;;12.90;8.50;;;5.10;89.10;;;;;;4946223;28;20588;-63
2023/12/18 11:38:08;;;;;;;13.13;8.40;;;5.20;89.30;;;;;;4948033;28;20035;-64
2023/12/18 11:40:42;;;;;;;12.57;8.80;;;5.20;89.30;;;;;;4946291;28;20031;-63
2023/12/18 11:43:09;;;;;;;13.83;9.17;;;5.20;89.40;;;;;;4943671;28;20084;-64
2023/12/18 11:45:45;;;;;;;13.80;9.00;;;5.20;89.20;;;;;;4944704;28;20072;-63
2023/12/18 11:48:16;;;;;;;14.30;9.20;;;5.30;89.10;;;;;;4954526;28;20110;-63
2023/12/18 11:50:42;;;;;;;14.43;9.13;;;5.30;89.10;;;;;;4947732;28;20039;-63
2023/12/18 11:53:20;;;;;;;13.40;9.27;;;5.30;89.00;;;;;;4944478;28;20043;-62
2023/12/18 11:55:51;;;;;;;15.10;9.32;;;5.30;88.90;;;;;;4952771;28;20035;-63
2023/12/18 11:58:21;;;;;;;15.75;9.65;;;5.40;89.10;;;;;;4948183;28;20027;-63
2023/12/18 12:00:47;;;;;;;13.50;9.23;;;5.40;89.10;;;;;;4946232;28;20043;-62
2023/12/18 12:03:16;;;;;;;16.80;9.95;;;5.40;88.90;;;;;;4945369;28;20032;-63
2023/12/18 12:05:43;;;;;;;15.25;9.30;;;5.40;88.90;;;;;;4948243;28;20446;-63
2023/12/18 12:08:09;;;;;;;12.27;8.18;;;5.50;88.90;;;;;;4944661;28;20550;-63
2023/12/18 12:10:46;;;;;;;18.50;8.95;;;5.50;88.70;;;;;;4947097;28;20083;-61
2023/12/18 12:13:23;;;;;;;14.13;8.80;;;5.50;88.60;;;;;;4945089;28;20410;-63
2023/12/18 12:15:56;;;;;;;13.38;8.70;;;5.50;88.60;;;;;;4946038;28;20081;-63
2023/12/18 12:18:23;;;;;;;22.75;9.50;;;5.60;88.70;;;;;;4951036;28;20113;-63
2023/12/18 12:20:48;;;;;;;15.38;8.90;;;5.60;88.70;;;;;;4941019;28;20496;-62
2023/12/18 12:23:14;;;;;;;13.13;8.88;;;5.60;88.80;;;;;;4943275;28;20072;-63
2023/12/18 12:25:40;;;;;;;17.15;8.60;;;5.60;88.70;;;;;;4949817;28;20027;-63
2023/12/18 12:28:06;;;;;;;11.68;7.97;;;5.70;88.70;;;;;;4948698;28;20047;-63
2023/12/18 12:30:32;;;;;;;12.07;7.85;;;5.70;88.60;;;;;;4949035;28;20042;-63
2023/12/18 12:32:58;;;;;;;11.48;8.07;;;5.70;88.20;;;;;;4939820;28;20039;-63
2023/12/18 12:35:25;;;;;;;12.18;8.25;;;5.70;88.10;;;;;;4945050;28;20106;-62
2023/12/18 12:37:51;;;;;;;12.00;8.23;;;5.70;88.10;;;;;;4945423;28;20043;-62
2023/12/18 12:40:16;;;;;;;11.30;7.75;;;5.70;88.20;;;;;;4949560;28;20402;-63